sensor_id;sensor_type;location;lat;lon;timestamp;P1;durP1;ratioP1;P2;durP2;ratioP2
23590;SDS011;11973;52.098;7.582;2023-07-31T04:15:26;15.07;;;7.57;;
23590;SDS011;11973;52.098;7.582;2023-07-31T04:17:52;12.82;;;7.15;;
23590;SDS011;11973;52.098;7.582;2023-07-31T04:20:18;13.98;;;7.75;;
23590;SDS011;11973;52.098;7.582;2023-07-31T04:22:43;11.90;;;7.05;;
23590;SDS011;11973;52.098;7.582;2023-07-31T04:25:10;13.68;;;7.68;;
23590;SDS011;11973;52.098;7.582;2023-07-31T04:27:36;14.70;;;7.72;;
23590;SDS011;11973;52.098;7.582;2023-07-31T04:30:02;14.57;;;7.85;;
23590;SDS011;11973;52.098;7.582;2023-07-31T04:32:28;16.98;;;8.32;;
23590;SDS011;11973;52.098;7.582;2023-07-31T04:34:54;11.65;;;7.65;;
23590;SDS011;11973;52.098;7.582;2023-07-31T04:37:20;22.27;;;8.00;;
23590;SDS011;11973;52.098;7.582;2023-07-31T04:39:46;14.90;;;7.95;;
23590;SDS011;11973;52.098;7.582;2023-07-31T04:42:12;12.13;;;7.28;;
23590;SDS011;11973;52.098;7.582;2023-07-31T04:44:38;17.67;;;7.70;;
23590;SDS011;11973;52.098;7.582;2023-07-31T04:47:03;17.88;;;8.25;;
23590;SDS011;11973;52.098;7.582;2023-07-31T04:49:29;14.85;;;7.18;;
23590;SDS011;11973;52.098;7.582;2023-07-31T04:51:55;11.35;;;6.43;;
23590;SDS011;11973;52.098;7.582;2023-07-31T04:54:20;12.43;;;6.72;;
23590;SDS011;11973;52.098;7.582;2023-07-31T04:56:46;9.95;;;7.05;;
23590;SDS011;11973;52.098;7.582;2023-07-31T04:59:12;15.43;;;7.05;;
23590;SDS011;11973;52.098;7.582;2023-07-31T05:01:38;12.52;;;6.45;;
23590;SDS011;11973;52.098;7.582;2023-07-31T05:04:04;13.88;;;6.63;;
23590;SDS011;11973;52.098;7.582;2023-07-31T05:06:29;18.33;;;6.97;;
23590;SDS011;11973;52.098;7.582;2023-07-31T05:08:55;17.58;;;6.13;;
23590;SDS011;11973;52.098;7.582;2023-07-31T05:11:21;11.85;;;6.55;;
23590;SDS011;11973;52.098;7.582;2023-07-31T05:13:46;14.82;;;6.82;;
23590;SDS011;11973;52.098;7.582;2023-07-31T05:16:12;11.00;;;6.15;;
23590;SDS011;11973;52.098;7.582;2023-07-31T05:18:38;11.27;;;5.78;;
23590;SDS011;11973;52.098;7.582;2023-07-31T05:21:03;14.65;;;6.30;;
23590;SDS011;11973;52.098;7.582;2023-07-31T05:23:29;13.07;;;6.60;;
23590;SDS011;11973;52.098;7.582;2023-07-31T05:26:07;21.50;;;7.22;;
23590;SDS011;11973;52.098;7.582;2023-07-31T05:28:35;13.00;;;6.28;;
23590;SDS011;11973;52.098;7.582;2023-07-31T05:31:02;9.40;;;5.55;;
23590;SDS011;11973;52.098;7.582;2023-07-31T05:33:28;7.82;;;5.80;;
23590;SDS011;11973;52.098;7.582;2023-07-31T05:35:54;15.55;;;7.35;;
23590;SDS011;11973;52.098;7.582;2023-07-31T05:38:20;13.13;;;5.97;;
23590;SDS011;11973;52.098;7.582;2023-07-31T05:40:46;8.88;;;6.22;;
23590;SDS011;11973;52.098;7.582;2023-07-31T05:43:12;11.20;;;6.10;;
23590;SDS011;11973;52.098;7.582;2023-07-31T05:45:38;11.00;;;6.00;;
23590;SDS011;11973;52.098;7.582;2023-07-31T05:48:05;14.05;;;6.88;;
23590;SDS011;11973;52.098;7.582;2023-07-31T05:50:31;12.95;;;5.88;;
23590;SDS011;11973;52.098;7.582;2023-07-31T05:52:57;14.88;;;6.70;;
23590;SDS011;11973;52.098;7.582;2023-07-31T05:55:23;9.80;;;5.90;;
23590;SDS011;11973;52.098;7.582;2023-07-31T05:57:52;10.65;;;5.95;;
23590;SDS011;11973;52.098;7.582;2023-07-31T06:00:18;11.68;;;5.93;;
23590;SDS011;11973;52.098;7.582;2023-07-31T06:02:44;13.32;;;6.43;;
23590;SDS011;11973;52.098;7.582;2023-07-31T06:05:09;13.68;;;6.30;;
23590;SDS011;11973;52.098;7.582;2023-07-31T06:07:35;10.73;;;5.85;;
23590;SDS011;11973;52.098;7.582;2023-07-31T06:10:01;16.75;;;6.65;;
23590;SDS011;11973;52.098;7.582;2023-07-31T06:12:31;13.75;;;5.95;;
23590;SDS011;11973;52.098;7.582;2023-07-31T06:14:57;10.98;;;5.85;;
23590;SDS011;11973;52.098;7.582;2023-07-31T06:17:23;13.48;;;6.18;;
23590;SDS011;11973;52.098;7.582;2023-07-31T06:19:49;12.70;;;6.20;;
23590;SDS011;11973;52.098;7.582;2023-07-31T06:22:16;13.02;;;5.63;;
23590;SDS011;11973;52.098;7.582;2023-07-31T06:24:41;9.90;;;6.50;;
23590;SDS011;11973;52.098;7.582;2023-07-31T06:27:07;10.93;;;6.05;;
23590;SDS011;11973;52.098;7.582;2023-07-31T06:29:33;10.15;;;5.50;;
23590;SDS011;11973;52.098;7.582;2023-07-31T06:31:59;14.88;;;6.32;;
23590;SDS011;11973;52.098;7.582;2023-07-31T06:34:25;13.27;;;6.35;;
23590;SDS011;11973;52.098;7.582;2023-07-31T06:36:51;12.20;;;5.82;;
23590;SDS011;11973;52.098;7.582;2023-07-31T06:39:17;12.00;;;5.78;;
23590;SDS011;11973;52.098;7.582;2023-07-31T06:41:43;10.68;;;5.70;;
23590;SDS011;11973;52.098;7.582;2023-07-31T06:44:09;6.47;;;5.68;;
23590;SDS011;11973;52.098;7.582;2023-07-31T06:46:48;14.73;;;6.20;;
23590;SDS011;11973;52.098;7.582;2023-07-31T06:49:19;7.68;;;5.93;;
23590;SDS011;11973;52.098;7.582;2023-07-31T06:51:46;10.68;;;5.63;;
23590;SDS011;11973;52.098;7.582;2023-07-31T06:54:11;6.85;;;5.05;;
23590;SDS011;11973;52.098;7.582;2023-07-31T06:56:37;15.43;;;5.82;;
23590;SDS011;11973;52.098;7.582;2023-07-31T06:59:03;12.07;;;6.13;;
23590;SDS011;11973;52.098;7.582;2023-07-31T07:01:30;10.30;;;5.50;;
23590;SDS011;11973;52.098;7.582;2023-07-31T07:03:56;9.95;;;5.40;;
23590;SDS011;11973;52.098;7.582;2023-07-31T07:06:21;8.45;;;5.47;;
23590;SDS011;11973;52.098;7.582;2023-07-31T07:08:47;12.02;;;5.07;;
23590;SDS011;11973;52.098;7.582;2023-07-31T07:11:13;9.32;;;5.22;;
23590;SDS011;11973;52.098;7.582;2023-07-31T07:13:39;5.85;;;5.13;;
23590;SDS011;11973;52.098;7.582;2023-07-31T07:16:05;9.10;;;5.57;;
23590;SDS011;11973;52.098;7.582;2023-07-31T07:18:32;9.32;;;5.57;;
23590;SDS011;11973;52.098;7.582;2023-07-31T07:20:57;10.80;;;5.80;;
23590;SDS011;11973;52.098;7.582;2023-07-31T07:23:23;12.02;;;5.43;;
23590;SDS011;11973;52.098;7.582;2023-07-31T07:25:50;5.82;;;5.20;;
23590;SDS011;11973;52.098;7.582;2023-07-31T07:28:16;11.00;;;5.70;;
23590;SDS011;11973;52.098;7.582;2023-07-31T07:30:42;10.25;;;4.95;;
23590;SDS011;11973;52.098;7.582;2023-07-31T07:33:07;8.55;;;5.03;;
23590;SDS011;11973;52.098;7.582;2023-07-31T07:35:33;10.15;;;5.15;;
23590;SDS011;11973;52.098;7.582;2023-07-31T07:38:00;6.20;;;4.65;;
23590;SDS011;11973;52.098;7.582;2023-07-31T07:40:28;6.20;;;4.82;;
23590;SDS011;11973;52.098;7.582;2023-07-31T07:42:54;5.75;;;4.80;;
23590;SDS011;11973;52.098;7.582;2023-07-31T07:45:20;4.68;;;4.38;;
23590;SDS011;11973;52.098;7.582;2023-07-31T07:47:45;4.68;;;4.38;;
23590;SDS011;11973;52.098;7.582;2023-07-31T07:50:11;5.18;;;4.00;;
23590;SDS011;11973;52.098;7.582;2023-07-31T07:52:37;4.95;;;3.97;;
23590;SDS011;11973;52.098;7.582;2023-07-31T07:55:03;4.28;;;3.70;;
23590;SDS011;11973;52.098;7.582;2023-07-31T07:57:29;3.50;;;3.28;;
23590;SDS011;11973;52.098;7.582;2023-07-31T07:59:55;4.03;;;3.72;;
23590;SDS011;11973;52.098;7.582;2023-07-31T08:02:21;3.75;;;3.20;;
23590;SDS011;11973;52.098;7.582;2023-07-31T08:04:47;4.78;;;3.63;;
23590;SDS011;11973;52.098;7.582;2023-07-31T08:07:13;3.35;;;3.05;;
23590;SDS011;11973;52.098;7.582;2023-07-31T08:09:39;2.28;;;2.28;;
23590;SDS011;11973;52.098;7.582;2023-07-31T08:12:05;2.45;;;2.25;;
23590;SDS011;11973;52.098;7.582;2023-07-31T08:14:32;1.77;;;1.75;;
23590;SDS011;11973;52.098;7.582;2023-07-31T08:16:57;1.80;;;1.80;;
23590;SDS011;11973;52.098;7.582;2023-07-31T08:19:23;1.88;;;1.88;;
23590;SDS011;11973;52.098;7.582;2023-07-31T08:21:49;2.00;;;2.00;;
23590;SDS011;11973;52.098;7.582;2023-07-31T08:24:15;1.90;;;1.80;;
23590;SDS011;11973;52.098;7.582;2023-07-31T08:26:41;1.83;;;1.83;;
23590;SDS011;11973;52.098;7.582;2023-07-31T08:29:07;1.85;;;1.75;;
23590;SDS011;11973;52.098;7.582;2023-07-31T08:31:33;2.22;;;2.22;;
23590;SDS011;11973;52.098;7.582;2023-07-31T08:33:59;2.55;;;2.35;;
23590;SDS011;11973;52.098;7.582;2023-07-31T08:36:26;1.95;;;1.95;;
23590;SDS011;11973;52.098;7.582;2023-07-31T08:38:54;2.22;;;2.15;;
23590;SDS011;11973;52.098;7.582;2023-07-31T08:41:22;2.00;;;2.00;;
23590;SDS011;11973;52.098;7.582;2023-07-31T08:43:49;2.03;;;2.03;;
23590;SDS011;11973;52.098;7.582;2023-07-31T08:46:15;2.03;;;2.03;;
23590;SDS011;11973;52.098;7.582;2023-07-31T08:48:41;1.90;;;1.90;;
23590;SDS011;11973;52.098;7.582;2023-07-31T08:51:09;2.00;;;2.00;;
23590;SDS011;11973;52.098;7.582;2023-07-31T08:53:35;2.35;;;2.35;;
23590;SDS011;11973;52.098;7.582;2023-07-31T08:56:01;1.77;;;1.77;;
23590;SDS011;11973;52.098;7.582;2023-07-31T08:58:28;1.55;;;1.55;;
23590;SDS011;11973;52.098;7.582;2023-07-31T09:00:57;1.50;;;1.50;;
23590;SDS011;11973;52.098;7.582;2023-07-31T09:03:26;1.23;;;1.23;;
23590;SDS011;11973;52.098;7.582;2023-07-31T09:05:57;1.40;;;1.40;;
23590;SDS011;11973;52.098;7.582;2023-07-31T09:08:24;1.20;;;1.20;;
23590;SDS011;11973;52.098;7.582;2023-07-31T09:10:55;1.02;;;1.02;;
23590;SDS011;11973;52.098;7.582;2023-07-31T09:13:27;1.27;;;1.23;;
23590;SDS011;11973;52.098;7.582;2023-07-31T09:15:54;3.05;;;1.23;;
23590;SDS011;11973;52.098;7.582;2023-07-31T09:18:20;1.40;;;1.40;;
23590;SDS011;11973;52.098;7.582;2023-07-31T09:23:46;2.00;;;2.00;;
23590;SDS011;11973;52.098;7.582;2023-07-31T09:26:35;1.80;;;1.80;;
23590;SDS011;11973;52.098;7.582;2023-07-31T09:29:04;1.40;;;1.40;;
23590;SDS011;11973;52.098;7.582;2023-07-31T09:34:07;1.67;;;1.58;;
23590;SDS011;11973;52.098;7.582;2023-07-31T09:36:39;1.50;;;1.40;;
23590;SDS011;11973;52.098;7.582;2023-07-31T09:39:10;1.25;;;1.25;;
23590;SDS011;11973;52.098;7.582;2023-07-31T09:41:37;1.20;;;1.20;;
23590;SDS011;11973;52.098;7.582;2023-07-31T09:44:11;2.08;;;2.08;;
23590;SDS011;11973;52.098;7.582;2023-07-31T09:46:37;1.25;;;1.25;;
23590;SDS011;11973;52.098;7.582;2023-07-31T09:49:04;1.17;;;1.17;;
23590;SDS011;11973;52.098;7.582;2023-07-31T09:51:31;1.00;;;1.00;;
23590;SDS011;11973;52.098;7.582;2023-07-31T09:53:57;1.30;;;1.30;;
23590;SDS011;11973;52.098;7.582;2023-07-31T09:56:22;0.90;;;0.90;;
23590;SDS011;11973;52.098;7.582;2023-07-31T09:58:49;1.40;;;1.30;;
23590;SDS011;11973;52.098;7.582;2023-07-31T10:01:15;1.08;;;1.08;;
23590;SDS011;11973;52.098;7.582;2023-07-31T10:03:41;0.95;;;0.95;;
23590;SDS011;11973;52.098;7.582;2023-07-31T10:06:10;1.40;;;1.40;;
23590;SDS011;11973;52.098;7.582;2023-07-31T10:08:36;1.17;;;1.17;;
23590;SDS011;11973;52.098;7.582;2023-07-31T10:11:03;1.50;;;1.40;;
23590;SDS011;11973;52.098;7.582;2023-07-31T10:13:31;1.10;;;1.10;;
23590;SDS011;11973;52.098;7.582;2023-07-31T10:15:58;1.00;;;1.00;;
23590;SDS011;11973;52.098;7.582;2023-07-31T10:18:25;0.98;;;0.98;;
23590;SDS011;11973;52.098;7.582;2023-07-31T10:20:52;1.15;;;1.10;;
23590;SDS011;11973;52.098;7.582;2023-07-31T10:23:19;0.90;;;0.90;;
23590;SDS011;11973;52.098;7.582;2023-07-31T10:25:45;1.00;;;1.00;;
23590;SDS011;11973;52.098;7.582;2023-07-31T10:28:12;0.80;;;0.80;;
23590;SDS011;11973;52.098;7.582;2023-07-31T10:30:38;0.80;;;0.80;;
23590;SDS011;11973;52.098;7.582;2023-07-31T10:33:05;0.85;;;0.85;;
23590;SDS011;11973;52.098;7.582;2023-07-31T10:35:32;0.68;;;0.60;;
23590;SDS011;11973;52.098;7.582;2023-07-31T10:38:11;0.70;;;0.70;;
23590;SDS011;11973;52.098;7.582;2023-07-31T10:40:37;0.93;;;0.93;;
23590;SDS011;11973;52.098;7.582;2023-07-31T10:43:03;0.70;;;0.70;;
23590;SDS011;11973;52.098;7.582;2023-07-31T10:48:05;0.80;;;0.80;;
23590;SDS011;11973;52.098;7.582;2023-07-31T10:50:38;0.95;;;0.95;;
23590;SDS011;11973;52.098;7.582;2023-07-31T10:56:11;1.33;;;1.00;;
23590;SDS011;11973;52.098;7.582;2023-07-31T10:58:39;0.80;;;0.80;;
23590;SDS011;11973;52.098;7.582;2023-07-31T11:01:05;0.80;;;0.80;;
23590;SDS011;11973;52.098;7.582;2023-07-31T11:06:19;0.57;;;0.57;;
23590;SDS011;11973;52.098;7.582;2023-07-31T11:08:48;1.00;;;1.00;;
23590;SDS011;11973;52.098;7.582;2023-07-31T11:11:16;0.93;;;0.93;;
23590;SDS011;11973;52.098;7.582;2023-07-31T11:16:20;2.05;;;0.70;;
23590;SDS011;11973;52.098;7.582;2023-07-31T11:18:48;0.80;;;0.75;;
23590;SDS011;11973;52.098;7.582;2023-07-31T11:21:15;0.88;;;0.88;;
23590;SDS011;11973;52.098;7.582;2023-07-31T11:23:45;0.60;;;0.60;;
23590;SDS011;11973;52.098;7.582;2023-07-31T11:26:12;0.85;;;0.85;;
23590;SDS011;11973;52.098;7.582;2023-07-31T11:28:39;0.88;;;0.88;;
23590;SDS011;11973;52.098;7.582;2023-07-31T11:31:10;1.10;;;1.10;;
23590;SDS011;11973;52.098;7.582;2023-07-31T11:33:36;1.02;;;1.02;;
23590;SDS011;11973;52.098;7.582;2023-07-31T11:36:03;1.10;;;1.10;;
23590;SDS011;11973;52.098;7.582;2023-07-31T11:38:30;1.65;;;1.08;;
23590;SDS011;11973;52.098;7.582;2023-07-31T11:40:58;0.90;;;0.90;;
23590;SDS011;11973;52.098;7.582;2023-07-31T11:43:25;1.00;;;1.00;;
23590;SDS011;11973;52.098;7.582;2023-07-31T11:45:52;1.05;;;1.05;;
23590;SDS011;11973;52.098;7.582;2023-07-31T11:48:23;1.40;;;1.40;;
23590;SDS011;11973;52.098;7.582;2023-07-31T11:50:59;0.98;;;0.98;;
23590;SDS011;11973;52.098;7.582;2023-07-31T11:56:13;1.73;;;1.70;;
23590;SDS011;11973;52.098;7.582;2023-07-31T11:58:41;1.30;;;1.30;;
23590;SDS011;11973;52.098;7.582;2023-07-31T12:01:10;1.50;;;1.50;;
23590;SDS011;11973;52.098;7.582;2023-07-31T12:03:37;1.40;;;1.40;;
23590;SDS011;11973;52.098;7.582;2023-07-31T12:06:03;1.55;;;1.38;;
23590;SDS011;11973;52.098;7.582;2023-07-31T12:08:29;2.83;;;1.70;;
23590;SDS011;11973;52.098;7.582;2023-07-31T12:11:01;1.60;;;1.60;;
23590;SDS011;11973;52.098;7.582;2023-07-31T12:13:28;2.08;;;2.08;;
23590;SDS011;11973;52.098;7.582;2023-07-31T12:15:57;2.20;;;2.20;;
23590;SDS011;11973;52.098;7.582;2023-07-31T12:18:25;2.45;;;2.45;;
23590;SDS011;11973;52.098;7.582;2023-07-31T12:20:57;2.67;;;2.60;;
23590;SDS011;11973;52.098;7.582;2023-07-31T12:23:31;3.45;;;3.35;;
23590;SDS011;11973;52.098;7.582;2023-07-31T12:26:05;3.33;;;3.33;;
23590;SDS011;11973;52.098;7.582;2023-07-31T12:28:36;3.85;;;3.70;;
23590;SDS011;11973;52.098;7.582;2023-07-31T12:31:07;3.72;;;3.63;;
23590;SDS011;11973;52.098;7.582;2023-07-31T12:33:41;3.88;;;3.78;;
23590;SDS011;11973;52.098;7.582;2023-07-31T12:36:10;3.53;;;3.42;;
23590;SDS011;11973;52.098;7.582;2023-07-31T12:38:41;4.20;;;4.00;;
23590;SDS011;11973;52.098;7.582;2023-07-31T12:41:07;3.67;;;3.40;;
23590;SDS011;11973;52.098;7.582;2023-07-31T12:43:34;3.50;;;3.50;;
23590;SDS011;11973;52.098;7.582;2023-07-31T12:46:00;3.58;;;3.47;;
23590;SDS011;11973;52.098;7.582;2023-07-31T12:48:26;3.90;;;3.67;;
23590;SDS011;11973;52.098;7.582;2023-07-31T12:50:52;3.33;;;3.22;;
23590;SDS011;11973;52.098;7.582;2023-07-31T12:53:17;3.83;;;3.55;;
23590;SDS011;11973;52.098;7.582;2023-07-31T12:55:43;3.13;;;3.08;;
23590;SDS011;11973;52.098;7.582;2023-07-31T12:58:09;3.50;;;3.30;;
23590;SDS011;11973;52.098;7.582;2023-07-31T13:00:35;3.00;;;2.83;;
23590;SDS011;11973;52.098;7.582;2023-07-31T13:03:01;2.85;;;2.85;;
23590;SDS011;11973;52.098;7.582;2023-07-31T13:05:28;2.95;;;2.95;;
23590;SDS011;11973;52.098;7.582;2023-07-31T13:07:54;2.67;;;2.67;;
23590;SDS011;11973;52.098;7.582;2023-07-31T13:10:20;2.78;;;2.67;;
23590;SDS011;11973;52.098;7.582;2023-07-31T13:12:46;2.60;;;2.50;;
23590;SDS011;11973;52.098;7.582;2023-07-31T13:15:13;2.60;;;2.60;;
23590;SDS011;11973;52.098;7.582;2023-07-31T13:17:39;2.70;;;2.63;;
23590;SDS011;11973;52.098;7.582;2023-07-31T13:20:05;2.38;;;2.38;;
23590;SDS011;11973;52.098;7.582;2023-07-31T13:22:31;2.58;;;2.40;;
23590;SDS011;11973;52.098;7.582;2023-07-31T13:24:57;2.75;;;2.75;;
23590;SDS011;11973;52.098;7.582;2023-07-31T13:27:22;2.88;;;2.78;;
23590;SDS011;11973;52.098;7.582;2023-07-31T13:29:49;2.70;;;2.70;;
23590;SDS011;11973;52.098;7.582;2023-07-31T13:32:16;3.10;;;3.00;;
23590;SDS011;11973;52.098;7.582;2023-07-31T13:34:43;2.17;;;2.17;;
23590;SDS011;11973;52.098;7.582;2023-07-31T13:37:09;2.90;;;2.90;;
23590;SDS011;11973;52.098;7.582;2023-07-31T13:39:35;3.20;;;3.10;;
23590;SDS011;11973;52.098;7.582;2023-07-31T13:42:02;2.70;;;2.70;;
23590;SDS011;11973;52.098;7.582;2023-07-31T13:44:28;2.70;;;2.40;;
23590;SDS011;11973;52.098;7.582;2023-07-31T13:46:54;2.67;;;2.40;;
23590;SDS011;11973;52.098;7.582;2023-07-31T13:49:20;2.42;;;2.33;;
23590;SDS011;11973;52.098;7.582;2023-07-31T13:51:46;2.35;;;2.35;;
23590;SDS011;11973;52.098;7.582;2023-07-31T13:54:11;2.50;;;2.40;;
23590;SDS011;11973;52.098;7.582;2023-07-31T13:56:37;2.40;;;2.30;;
23590;SDS011;11973;52.098;7.582;2023-07-31T13:59:03;2.13;;;2.13;;
23590;SDS011;11973;52.098;7.582;2023-07-31T14:01:29;2.28;;;2.28;;
23590;SDS011;11973;52.098;7.582;2023-07-31T14:03:56;2.60;;;2.33;;
23590;SDS011;11973;52.098;7.582;2023-07-31T14:06:22;2.22;;;2.22;;
23590;SDS011;11973;52.098;7.582;2023-07-31T14:08:48;2.40;;;2.30;;
23590;SDS011;11973;52.098;7.582;2023-07-31T14:11:13;2.88;;;2.40;;
23590;SDS011;11973;52.098;7.582;2023-07-31T14:13:39;2.10;;;2.05;;
23590;SDS011;11973;52.098;7.582;2023-07-31T14:16:05;1.98;;;1.95;;
23590;SDS011;11973;52.098;7.582;2023-07-31T14:18:31;2.85;;;2.10;;
23590;SDS011;11973;52.098;7.582;2023-07-31T14:20:57;1.63;;;1.63;;
23590;SDS011;11973;52.098;7.582;2023-07-31T14:23:23;1.70;;;1.70;;
23590;SDS011;11973;52.098;7.582;2023-07-31T14:25:49;1.95;;;1.70;;
23590;SDS011;11973;52.098;7.582;2023-07-31T14:28:14;1.67;;;1.67;;
23590;SDS011;11973;52.098;7.582;2023-07-31T14:30:40;1.38;;;1.38;;
23590;SDS011;11973;52.098;7.582;2023-07-31T14:33:06;1.30;;;1.30;;
23590;SDS011;11973;52.098;7.582;2023-07-31T14:35:33;1.65;;;1.60;;
23590;SDS011;11973;52.098;7.582;2023-07-31T14:37:59;1.38;;;1.38;;
23590;SDS011;11973;52.098;7.582;2023-07-31T14:40:25;1.10;;;1.10;;
23590;SDS011;11973;52.098;7.582;2023-07-31T14:42:51;1.35;;;1.35;;
23590;SDS011;11973;52.098;7.582;2023-07-31T14:45:17;1.55;;;1.52;;
23590;SDS011;11973;52.098;7.582;2023-07-31T14:47:43;1.38;;;1.38;;
23590;SDS011;11973;52.098;7.582;2023-07-31T14:50:09;2.40;;;1.80;;
23590;SDS011;11973;52.098;7.582;2023-07-31T14:52:35;1.60;;;1.50;;
23590;SDS011;11973;52.098;7.582;2023-07-31T14:55:01;1.42;;;1.42;;
23590;SDS011;11973;52.098;7.582;2023-07-31T14:57:27;1.60;;;1.45;;
23590;SDS011;11973;52.098;7.582;2023-07-31T14:59:53;3.05;;;1.50;;
23590;SDS011;11973;52.098;7.582;2023-07-31T15:02:19;1.40;;;1.40;;
23590;SDS011;11973;52.098;7.582;2023-07-31T15:04:44;1.48;;;1.48;;
23590;SDS011;11973;52.098;7.582;2023-07-31T15:07:10;1.80;;;1.80;;
23590;SDS011;11973;52.098;7.582;2023-07-31T15:09:38;1.92;;;1.92;;
23590;SDS011;11973;52.098;7.582;2023-07-31T15:12:04;3.25;;;1.90;;
23590;SDS011;11973;52.098;7.582;2023-07-31T15:14:30;1.88;;;1.88;;
23590;SDS011;11973;52.098;7.582;2023-07-31T15:16:56;1.90;;;1.90;;
23590;SDS011;11973;52.098;7.582;2023-07-31T15:19:22;2.35;;;2.35;;
23590;SDS011;11973;52.098;7.582;2023-07-31T15:21:49;2.38;;;2.38;;
23590;SDS011;11973;52.098;7.582;2023-07-31T15:24:15;2.33;;;2.33;;
23590;SDS011;11973;52.098;7.582;2023-07-31T15:26:41;2.53;;;2.42;;
23590;SDS011;11973;52.098;7.582;2023-07-31T15:29:09;2.47;;;2.47;;
23590;SDS011;11973;52.098;7.582;2023-07-31T15:31:41;2.78;;;2.70;;
23590;SDS011;11973;52.098;7.582;2023-07-31T15:34:07;2.75;;;2.75;;
23590;SDS011;11973;52.098;7.582;2023-07-31T15:36:32;3.22;;;3.03;;
23590;SDS011;11973;52.098;7.582;2023-07-31T15:38:58;3.20;;;3.10;;
23590;SDS011;11973;52.098;7.582;2023-07-31T15:41:24;3.47;;;3.40;;
23590;SDS011;11973;52.098;7.582;2023-07-31T15:43:50;4.88;;;3.38;;
23590;SDS011;11973;52.098;7.582;2023-07-31T15:46:17;3.75;;;3.55;;
23590;SDS011;11973;52.098;7.582;2023-07-31T15:48:44;4.22;;;3.92;;
23590;SDS011;11973;52.098;7.582;2023-07-31T15:51:11;3.92;;;3.83;;
23590;SDS011;11973;52.098;7.582;2023-07-31T15:53:37;4.55;;;4.20;;
23590;SDS011;11973;52.098;7.582;2023-07-31T15:56:03;4.00;;;3.78;;
23590;SDS011;11973;52.098;7.582;2023-07-31T15:58:29;4.75;;;4.55;;
23590;SDS011;11973;52.098;7.582;2023-07-31T16:00:56;5.28;;;4.97;;
23590;SDS011;11973;52.098;7.582;2023-07-31T16:03:22;4.88;;;4.78;;
23590;SDS011;11973;52.098;7.582;2023-07-31T16:05:48;5.38;;;5.10;;
23590;SDS011;11973;52.098;7.582;2023-07-31T16:08:14;4.90;;;4.50;;
23590;SDS011;11973;52.098;7.582;2023-07-31T16:10:43;5.18;;;5.07;;
23590;SDS011;11973;52.098;7.582;2023-07-31T16:13:11;5.45;;;5.25;;
23590;SDS011;11973;52.098;7.582;2023-07-31T16:15:38;5.75;;;5.57;;
23590;SDS011;11973;52.098;7.582;2023-07-31T16:18:06;6.22;;;5.82;;
23590;SDS011;11973;52.098;7.582;2023-07-31T16:20:36;6.47;;;6.28;;
23590;SDS011;11973;52.098;7.582;2023-07-31T16:23:02;6.25;;;5.95;;
23590;SDS011;11973;52.098;7.582;2023-07-31T16:25:28;5.07;;;4.97;;
23590;SDS011;11973;52.098;7.582;2023-07-31T16:27:54;6.10;;;5.63;;
23590;SDS011;11973;52.098;7.582;2023-07-31T16:30:20;4.30;;;4.20;;
23590;SDS011;11973;52.098;7.582;2023-07-31T16:32:46;4.60;;;4.40;;
23590;SDS011;11973;52.098;7.582;2023-07-31T16:35:14;4.55;;;4.22;;
23590;SDS011;11973;52.098;7.582;2023-07-31T16:37:40;4.05;;;3.95;;
23590;SDS011;11973;52.098;7.582;2023-07-31T16:40:06;4.43;;;4.22;;
23590;SDS011;11973;52.098;7.582;2023-07-31T16:42:33;5.10;;;4.75;;
23590;SDS011;11973;52.098;7.582;2023-07-31T16:44:59;3.38;;;3.38;;
23590;SDS011;11973;52.098;7.582;2023-07-31T16:47:25;4.50;;;4.30;;
23590;SDS011;11973;52.098;7.582;2023-07-31T16:49:51;3.75;;;3.75;;
23590;SDS011;11973;52.098;7.582;2023-07-31T16:52:17;4.80;;;4.68;;
23590;SDS011;11973;52.098;7.582;2023-07-31T16:54:43;4.22;;;4.22;;
23590;SDS011;11973;52.098;7.582;2023-07-31T16:57:09;4.43;;;4.32;;
23590;SDS011;11973;52.098;7.582;2023-07-31T16:59:35;4.88;;;4.75;;
23590;SDS011;11973;52.098;7.582;2023-07-31T17:02:01;4.80;;;4.70;;
23590;SDS011;11973;52.098;7.582;2023-07-31T17:04:29;5.07;;;4.95;;
23590;SDS011;11973;52.098;7.582;2023-07-31T17:06:56;6.10;;;5.95;;
23590;SDS011;11973;52.098;7.582;2023-07-31T17:09:23;5.85;;;5.45;;
23590;SDS011;11973;52.098;7.582;2023-07-31T17:11:49;6.43;;;6.10;;
23590;SDS011;11973;52.098;7.582;2023-07-31T17:14:15;6.25;;;6.05;;
23590;SDS011;11973;52.098;7.582;2023-07-31T17:16:41;6.25;;;5.93;;
23590;SDS011;11973;52.098;7.582;2023-07-31T17:19:07;6.95;;;6.50;;
23590;SDS011;11973;52.098;7.582;2023-07-31T17:21:32;6.80;;;6.38;;
23590;SDS011;11973;52.098;7.582;2023-07-31T17:23:59;6.18;;;5.88;;
23590;SDS011;11973;52.098;7.582;2023-07-31T17:26:25;6.20;;;6.03;;
23590;SDS011;11973;52.098;7.582;2023-07-31T17:28:50;5.57;;;5.30;;
23590;SDS011;11973;52.098;7.582;2023-07-31T17:31:16;5.85;;;5.75;;
23590;SDS011;11973;52.098;7.582;2023-07-31T17:33:42;5.90;;;5.80;;
23590;SDS011;11973;52.098;7.582;2023-07-31T17:36:08;5.75;;;5.20;;
23590;SDS011;11973;52.098;7.582;2023-07-31T17:38:33;4.18;;;4.13;;
23590;SDS011;11973;52.098;7.582;2023-07-31T17:40:59;4.05;;;3.80;;
23590;SDS011;11973;52.098;7.582;2023-07-31T17:43:25;3.40;;;3.40;;
23590;SDS011;11973;52.098;7.582;2023-07-31T17:45:51;3.60;;;3.60;;
23590;SDS011;11973;52.098;7.582;2023-07-31T17:48:17;3.75;;;3.65;;
23590;SDS011;11973;52.098;7.582;2023-07-31T17:50:48;3.92;;;3.72;;
23590;SDS011;11973;52.098;7.582;2023-07-31T17:53:18;4.00;;;3.80;;
23590;SDS011;11973;52.098;7.582;2023-07-31T17:55:45;4.10;;;4.10;;
23590;SDS011;11973;52.098;7.582;2023-07-31T17:58:11;4.03;;;3.85;;
23590;SDS011;11973;52.098;7.582;2023-07-31T18:00:36;4.07;;;3.97;;
23590;SDS011;11973;52.098;7.582;2023-07-31T18:03:03;4.00;;;3.90;;
23590;SDS011;11973;52.098;7.582;2023-07-31T18:05:31;4.15;;;3.85;;
23590;SDS011;11973;52.098;7.582;2023-07-31T18:07:58;4.13;;;4.10;;
23590;SDS011;11973;52.098;7.582;2023-07-31T18:10:23;4.45;;;4.28;;
23590;SDS011;11973;52.098;7.582;2023-07-31T18:12:49;4.25;;;4.13;;
23590;SDS011;11973;52.098;7.582;2023-07-31T18:15:17;4.13;;;4.03;;
23590;SDS011;11973;52.098;7.582;2023-07-31T18:17:43;4.30;;;4.10;;
23590;SDS011;11973;52.098;7.582;2023-07-31T18:20:09;4.57;;;4.47;;
23590;SDS011;11973;52.098;7.582;2023-07-31T18:22:36;3.88;;;3.80;;
23590;SDS011;11973;52.098;7.582;2023-07-31T18:25:02;4.00;;;3.90;;
23590;SDS011;11973;52.098;7.582;2023-07-31T18:27:28;3.90;;;3.60;;
23590;SDS011;11973;52.098;7.582;2023-07-31T18:29:54;4.20;;;4.10;;
23590;SDS011;11973;52.098;7.582;2023-07-31T18:32:20;4.13;;;3.78;;
23590;SDS011;11973;52.098;7.582;2023-07-31T18:34:45;3.80;;;3.70;;
23590;SDS011;11973;52.098;7.582;2023-07-31T18:37:11;4.30;;;4.10;;
23590;SDS011;11973;52.098;7.582;2023-07-31T18:39:38;3.38;;;3.38;;
23590;SDS011;11973;52.098;7.582;2023-07-31T18:42:04;3.53;;;3.33;;
23590;SDS011;11973;52.098;7.582;2023-07-31T18:44:30;3.65;;;3.45;;
23590;SDS011;11973;52.098;7.582;2023-07-31T18:46:56;3.80;;;3.60;;
23590;SDS011;11973;52.098;7.582;2023-07-31T18:49:22;3.75;;;3.55;;
23590;SDS011;11973;52.098;7.582;2023-07-31T18:51:48;3.90;;;3.70;;
23590;SDS011;11973;52.098;7.582;2023-07-31T18:54:15;4.25;;;3.95;;
23590;SDS011;11973;52.098;7.582;2023-07-31T18:56:41;4.05;;;3.78;;
23590;SDS011;11973;52.098;7.582;2023-07-31T18:59:07;4.20;;;4.00;;
23590;SDS011;11973;52.098;7.582;2023-07-31T19:01:33;3.60;;;3.50;;
23590;SDS011;11973;52.098;7.582;2023-07-31T19:03:59;3.55;;;3.55;;
23590;SDS011;11973;52.098;7.582;2023-07-31T19:06:25;3.92;;;3.60;;
23590;SDS011;11973;52.098;7.582;2023-07-31T19:08:55;4.90;;;3.67;;
23590;SDS011;11973;52.098;7.582;2023-07-31T19:11:22;3.80;;;3.50;;
23590;SDS011;11973;52.098;7.582;2023-07-31T19:13:48;3.47;;;3.38;;
23590;SDS011;11973;52.098;7.582;2023-07-31T19:16:14;3.55;;;3.35;;